sensor_id;sensor_type;location;lat;lon;timestamp;pressure;altitude;pressure_sealevel;temperature;humidity
77077;BME280;66003;52.286;104.306;2023-07-13T00:01:44;96399.06;;;24.00;49.47
77077;BME280;66003;52.286;104.306;2023-07-13T00:04:14;96401.34;;;24.21;49.06
77077;BME280;66003;52.286;104.306;2023-07-13T00:06:40;96386.19;;;24.23;48.73
77077;BME280;66003;52.286;104.306;2023-07-13T00:09:15;96377.13;;;24.19;48.96
77077;BME280;66003;52.286;104.306;2023-07-13T00:11:43;96402.72;;;24.30;48.20
77077;BME280;66003;52.286;104.306;2023-07-13T00:14:11;96395.41;;;24.15;48.96
77077;BME280;66003;52.286;104.306;2023-07-13T00:16:38;96390.56;;;24.05;48.79
77077;BME280;66003;52.286;104.306;2023-07-13T00:19:06;96405.53;;;23.92;49.02
77077;BME280;66003;52.286;104.306;2023-07-13T00:21:32;96403.72;;;24.45;48.78
77077;BME280;66003;52.286;104.306;2023-07-13T00:23:58;96405.81;;;24.06;49.22
77077;BME280;66003;52.286;104.306;2023-07-13T00:26:24;96412.63;;;24.19;48.38
77077;BME280;66003;52.286;104.306;2023-07-13T00:28:50;96396.41;;;24.26;48.94
77077;BME280;66003;52.286;104.306;2023-07-13T00:31:17;96406.03;;;24.43;47.92
77077;BME280;66003;52.286;104.306;2023-07-13T00:33:44;96400.03;;;24.34;47.89
77077;BME280;66003;52.286;104.306;2023-07-13T00:36:10;96412.03;;;24.52;47.85
77077;BME280;66003;52.286;104.306;2023-07-13T00:38:37;96402.47;;;24.65;46.90
77077;BME280;66003;52.286;104.306;2023-07-13T00:41:04;96415.66;;;24.86;46.57
77077;BME280;66003;52.286;104.306;2023-07-13T00:43:30;96417.00;;;24.96;46.27
77077;BME280;66003;52.286;104.306;2023-07-13T00:46:30;96425.00;;;25.41;46.56
77077;BME280;66003;52.286;104.306;2023-07-13T00:49:01;96421.69;;;25.25;45.88
77077;BME280;66003;52.286;104.306;2023-07-13T00:51:35;96415.63;;;25.42;45.92
77077;BME280;66003;52.286;104.306;2023-07-13T00:54:06;96429.13;;;25.92;45.28
77077;BME280;66003;52.286;104.306;2023-07-13T00:56:33;96424.81;;;26.82;42.65
77077;BME280;66003;52.286;104.306;2023-07-13T00:59:02;96416.88;;;27.32;41.05
77077;BME280;66003;52.286;104.306;2023-07-13T01:01:30;96408.72;;;27.53;40.16
77077;BME280;66003;52.286;104.306;2023-07-13T01:03:56;96420.03;;;27.38;41.00
77077;BME280;66003;52.286;104.306;2023-07-13T01:06:22;96425.75;;;27.01;41.11
77077;BME280;66003;52.286;104.306;2023-07-13T01:08:49;96414.78;;;26.49;42.38
77077;BME280;66003;52.286;104.306;2023-07-13T01:11:19;96423.13;;;26.23;42.85
77077;BME280;66003;52.286;104.306;2023-07-13T01:13:47;96413.16;;;26.01;43.09
77077;BME280;66003;52.286;104.306;2023-07-13T01:16:25;96429.97;;;26.40;42.72
77077;BME280;66003;52.286;104.306;2023-07-13T01:18:51;96435.00;;;26.31;42.55
77077;BME280;66003;52.286;104.306;2023-07-13T01:21:18;96426.81;;;26.38;42.46
77077;BME280;66003;52.286;104.306;2023-07-13T01:23:44;96435.16;;;26.52;42.23
77077;BME280;66003;52.286;104.306;2023-07-13T01:26:11;96442.34;;;26.71;41.51
77077;BME280;66003;52.286;104.306;2023-07-13T01:28:38;96439.09;;;27.09;40.52
77077;BME280;66003;52.286;104.306;2023-07-13T01:31:04;96433.53;;;27.71;39.67
77077;BME280;66003;52.286;104.306;2023-07-13T01:33:30;96430.91;;;28.24;38.75
77077;BME280;66003;52.286;104.306;2023-07-13T01:35:57;96437.19;;;28.82;38.18
77077;BME280;66003;52.286;104.306;2023-07-13T01:38:23;96437.94;;;29.14;36.81
77077;BME280;66003;52.286;104.306;2023-07-13T01:40:53;96438.72;;;29.11;37.62
77077;BME280;66003;52.286;104.306;2023-07-13T01:43:20;96446.53;;;29.27;36.94
77077;BME280;66003;52.286;104.306;2023-07-13T01:45:47;96434.50;;;31.38;34.09
77077;BME280;66003;52.286;104.306;2023-07-13T01:48:13;96424.78;;;35.81;27.07
77077;BME280;66003;52.286;104.306;2023-07-13T01:50:40;96415.94;;;38.86;23.48
77077;BME280;66003;52.286;104.306;2023-07-13T01:53:06;96414.47;;;40.19;21.60
77077;BME280;66003;52.286;104.306;2023-07-13T01:55:33;96428.28;;;39.34;22.29
77077;BME280;66003;52.286;104.306;2023-07-13T01:57:59;96432.94;;;39.65;22.38
77077;BME280;66003;52.286;104.306;2023-07-13T02:00:25;96426.41;;;40.70;20.46
77077;BME280;66003;52.286;104.306;2023-07-13T02:02:51;96436.47;;;40.77;20.13
77077;BME280;66003;52.286;104.306;2023-07-13T02:05:18;96423.47;;;39.26;21.74
77077;BME280;66003;52.286;104.306;2023-07-13T02:07:45;96443.25;;;38.02;23.03
77077;BME280;66003;52.286;104.306;2023-07-13T02:10:12;96443.66;;;37.13;24.33
77077;BME280;66003;52.286;104.306;2023-07-13T02:12:38;96441.78;;;36.38;24.71
77077;BME280;66003;52.286;104.306;2023-07-13T02:15:05;96432.75;;;35.09;25.82
77077;BME280;66003;52.286;104.306;2023-07-13T02:17:35;96436.34;;;35.80;25.59
77077;BME280;66003;52.286;104.306;2023-07-13T02:20:03;96439.03;;;36.98;24.52
77077;BME280;66003;52.286;104.306;2023-07-13T02:22:33;96443.00;;;36.24;25.49
77077;BME280;66003;52.286;104.306;2023-07-13T02:24:59;96431.88;;;35.28;25.85
77077;BME280;66003;52.286;104.306;2023-07-13T02:27:26;96447.19;;;34.55;26.95
77077;BME280;66003;52.286;104.306;2023-07-13T02:29:52;96434.84;;;35.05;26.66
77077;BME280;66003;52.286;104.306;2023-07-13T02:32:19;96442.13;;;35.73;26.02
77077;BME280;66003;52.286;104.306;2023-07-13T02:34:45;96437.16;;;37.64;23.50
77077;BME280;66003;52.286;104.306;2023-07-13T02:37:12;96436.91;;;40.52;20.34
77077;BME280;66003;52.286;104.306;2023-07-13T02:39:38;96435.28;;;42.93;18.98
77077;BME280;66003;52.286;104.306;2023-07-13T02:42:04;96430.38;;;42.73;17.61
77077;BME280;66003;52.286;104.306;2023-07-13T02:44:31;96423.53;;;42.10;19.01
77077;BME280;66003;52.286;104.306;2023-07-13T02:46:57;96422.19;;;42.90;17.01
77077;BME280;66003;52.286;104.306;2023-07-13T02:49:24;96433.25;;;42.59;17.07
77077;BME280;66003;52.286;104.306;2023-07-13T02:51:51;96427.41;;;42.12;18.25
77077;BME280;66003;52.286;104.306;2023-07-13T02:54:17;96433.56;;;42.46;17.89
77077;BME280;66003;52.286;104.306;2023-07-13T02:56:43;96410.84;;;43.66;16.45
77077;BME280;66003;52.286;104.306;2023-07-13T02:59:12;96420.09;;;44.29;16.61
77077;BME280;66003;52.286;104.306;2023-07-13T03:01:38;96420.03;;;43.20;17.02
77077;BME280;66003;52.286;104.306;2023-07-13T03:04:05;96418.47;;;41.17;18.99
77077;BME280;66003;52.286;104.306;2023-07-13T03:06:32;96416.63;;;39.09;20.49
77077;BME280;66003;52.286;104.306;2023-07-13T03:08:59;96410.84;;;36.83;23.16
77077;BME280;66003;52.286;104.306;2023-07-13T03:11:26;96397.75;;;35.40;24.58
77077;BME280;66003;52.286;104.306;2023-07-13T03:13:52;96413.88;;;34.39;25.99
77077;BME280;66003;52.286;104.306;2023-07-13T03:16:19;96407.75;;;33.76;26.83
77077;BME280;66003;52.286;104.306;2023-07-13T03:18:46;96405.66;;;33.20;28.13
77077;BME280;66003;52.286;104.306;2023-07-13T03:21:13;96417.22;;;32.95;28.79
77077;BME280;66003;52.286;104.306;2023-07-13T03:23:39;96418.34;;;32.51;28.27
77077;BME280;66003;52.286;104.306;2023-07-13T03:26:11;96395.53;;;32.20;29.06
77077;BME280;66003;52.286;104.306;2023-07-13T03:28:39;96403.19;;;32.09;29.49
77077;BME280;66003;52.286;104.306;2023-07-13T03:31:19;96395.72;;;32.33;28.79
77077;BME280;66003;52.286;104.306;2023-07-13T03:33:47;96404.25;;;32.15;29.46
77077;BME280;66003;52.286;104.306;2023-07-13T03:36:19;96411.00;;;32.14;28.72
77077;BME280;66003;52.286;104.306;2023-07-13T03:38:57;96401.28;;;32.03;28.75
77077;BME280;66003;52.286;104.306;2023-07-13T03:41:24;96390.72;;;31.67;28.81
77077;BME280;66003;52.286;104.306;2023-07-13T03:43:51;96398.25;;;31.63;28.98
77077;BME280;66003;52.286;104.306;2023-07-13T03:46:18;96400.19;;;31.70;29.56
77077;BME280;66003;52.286;104.306;2023-07-13T03:48:46;96399.97;;;31.53;29.43
77077;BME280;66003;52.286;104.306;2023-07-13T03:51:14;96395.50;;;31.33;30.72
77077;BME280;66003;52.286;104.306;2023-07-13T03:53:44;96387.56;;;31.35;31.14
77077;BME280;66003;52.286;104.306;2023-07-13T03:56:10;96384.03;;;31.34;30.30
77077;BME280;66003;52.286;104.306;2023-07-13T03:58:38;96380.78;;;31.09;30.02
77077;BME280;66003;52.286;104.306;2023-07-13T04:01:07;96389.75;;;30.79;30.78
77077;BME280;66003;52.286;104.306;2023-07-13T04:03:35;96396.41;;;30.33;30.32
77077;BME280;66003;52.286;104.306;2023-07-13T04:06:07;96385.94;;;30.10;31.29
77077;BME280;66003;52.286;104.306;2023-07-13T04:08:36;96382.00;;;30.15;31.08
77077;BME280;66003;52.286;104.306;2023-07-13T04:11:03;96381.03;;;30.36;30.61
77077;BME280;66003;52.286;104.306;2023-07-13T04:13:30;96389.06;;;30.16;31.65
77077;BME280;66003;52.286;104.306;2023-07-13T04:15:56;96382.78;;;30.12;31.49
77077;BME280;66003;52.286;104.306;2023-07-13T04:18:22;96387.78;;;30.31;31.56
77077;BME280;66003;52.286;104.306;2023-07-13T04:20:49;96383.84;;;30.32;30.60
77077;BME280;66003;52.286;104.306;2023-07-13T04:23:17;96393.78;;;30.19;31.12
77077;BME280;66003;52.286;104.306;2023-07-13T04:25:44;96366.56;;;30.25;30.96
77077;BME280;66003;52.286;104.306;2023-07-13T04:28:10;96375.59;;;30.29;30.40
77077;BME280;66003;52.286;104.306;2023-07-13T04:30:37;96376.56;;;30.56;30.20
77077;BME280;66003;52.286;104.306;2023-07-13T04:33:03;96372.84;;;30.73;30.24
77077;BME280;66003;52.286;104.306;2023-07-13T04:35:30;96368.00;;;30.84;30.01
77077;BME280;66003;52.286;104.306;2023-07-13T04:37:57;96366.47;;;31.17;29.48
77077;BME280;66003;52.286;104.306;2023-07-13T04:40:23;96363.47;;;31.39;29.74
77077;BME280;66003;52.286;104.306;2023-07-13T04:42:49;96366.81;;;31.53;28.59
77077;BME280;66003;52.286;104.306;2023-07-13T04:45:15;96361.50;;;31.70;28.73
77077;BME280;66003;52.286;104.306;2023-07-13T04:47:43;96363.03;;;31.74;28.22
77077;BME280;66003;52.286;104.306;2023-07-13T04:50:09;96360.41;;;31.90;27.44
77077;BME280;66003;52.286;104.306;2023-07-13T04:52:37;96355.69;;;31.87;28.20
77077;BME280;66003;52.286;104.306;2023-07-13T04:55:03;96348.97;;;31.88;28.01
77077;BME280;66003;52.286;104.306;2023-07-13T04:57:30;96359.03;;;31.75;27.76
77077;BME280;66003;52.286;104.306;2023-07-13T04:59:56;96344.69;;;31.27;29.19
77077;BME280;66003;52.286;104.306;2023-07-13T05:02:22;96350.53;;;30.95;28.51
77077;BME280;66003;52.286;104.306;2023-07-13T05:04:49;96347.25;;;30.69;30.29
77077;BME280;66003;52.286;104.306;2023-07-13T05:07:15;96347.72;;;30.64;29.88
77077;BME280;66003;52.286;104.306;2023-07-13T05:09:41;96337.38;;;30.27;29.90
77077;BME280;66003;52.286;104.306;2023-07-13T05:12:08;96341.31;;;30.30;30.28
77077;BME280;66003;52.286;104.306;2023-07-13T05:14:35;96348.00;;;30.29;30.64
77077;BME280;66003;52.286;104.306;2023-07-13T05:17:01;96342.13;;;30.27;30.88
77077;BME280;66003;52.286;104.306;2023-07-13T05:19:28;96346.44;;;30.31;30.27
77077;BME280;66003;52.286;104.306;2023-07-13T05:21:55;96341.94;;;30.00;31.15
77077;BME280;66003;52.286;104.306;2023-07-13T05:24:22;96333.31;;;29.91;31.58
77077;BME280;66003;52.286;104.306;2023-07-13T05:26:48;96333.22;;;30.08;30.48
77077;BME280;66003;52.286;104.306;2023-07-13T05:29:14;96322.44;;;30.25;30.66
77077;BME280;66003;52.286;104.306;2023-07-13T05:31:40;96320.03;;;30.71;31.00
77077;BME280;66003;52.286;104.306;2023-07-13T05:34:06;96320.94;;;31.29;28.95
77077;BME280;66003;52.286;104.306;2023-07-13T05:36:33;96312.53;;;31.70;28.36
77077;BME280;66003;52.286;104.306;2023-07-13T05:39:00;96321.63;;;32.21;27.54
77077;BME280;66003;52.286;104.306;2023-07-13T05:41:26;96310.84;;;32.73;27.34
77077;BME280;66003;52.286;104.306;2023-07-13T05:43:52;96311.75;;;33.06;26.42
77077;BME280;66003;52.286;104.306;2023-07-13T05:46:18;96304.53;;;32.92;26.68
77077;BME280;66003;52.286;104.306;2023-07-13T05:48:44;96302.63;;;32.89;26.14
77077;BME280;66003;52.286;104.306;2023-07-13T05:51:10;96314.03;;;32.72;26.69
77077;BME280;66003;52.286;104.306;2023-07-13T05:53:36;96306.22;;;32.43;27.27
77077;BME280;66003;52.286;104.306;2023-07-13T05:56:03;96300.28;;;32.45;27.16
77077;BME280;66003;52.286;104.306;2023-07-13T05:58:29;96308.31;;;32.36;27.00
77077;BME280;66003;52.286;104.306;2023-07-13T06:01:05;96305.00;;;32.68;26.28
77077;BME280;66003;52.286;104.306;2023-07-13T06:03:33;96299.16;;;32.62;26.53
77077;BME280;66003;52.286;104.306;2023-07-13T06:05:59;96302.94;;;32.72;25.98
77077;BME280;66003;52.286;104.306;2023-07-13T06:08:28;96292.72;;;33.08;25.95
77077;BME280;66003;52.286;104.306;2023-07-13T06:10:54;96277.00;;;33.25;25.41
77077;BME280;66003;52.286;104.306;2023-07-13T06:13:20;96285.19;;;33.28;26.03
77077;BME280;66003;52.286;104.306;2023-07-13T06:15:50;96284.50;;;33.24;25.96
77077;BME280;66003;52.286;104.306;2023-07-13T06:18:16;96294.72;;;32.88;25.66
77077;BME280;66003;52.286;104.306;2023-07-13T06:20:43;96285.72;;;32.41;25.72
77077;BME280;66003;52.286;104.306;2023-07-13T06:23:09;96282.63;;;32.12;26.34
77077;BME280;66003;52.286;104.306;2023-07-13T06:25:35;96271.69;;;31.81;27.25
77077;BME280;66003;52.286;104.306;2023-07-13T06:28:01;96270.84;;;31.84;27.58
77077;BME280;66003;52.286;104.306;2023-07-13T06:30:28;96278.31;;;31.30;28.53
77077;BME280;66003;52.286;104.306;2023-07-13T06:32:54;96278.44;;;30.89;27.91
77077;BME280;66003;52.286;104.306;2023-07-13T06:35:20;96278.44;;;30.51;28.41
77077;BME280;66003;52.286;104.306;2023-07-13T06:37:46;96275.34;;;30.46;28.83
77077;BME280;66003;52.286;104.306;2023-07-13T06:40:13;96278.53;;;30.44;28.14
77077;BME280;66003;52.286;104.306;2023-07-13T06:42:39;96263.31;;;30.29;28.95
77077;BME280;66003;52.286;104.306;2023-07-13T06:45:06;96267.91;;;30.43;29.37
77077;BME280;66003;52.286;104.306;2023-07-13T06:47:32;96278.84;;;30.54;28.78
77077;BME280;66003;52.286;104.306;2023-07-13T06:49:59;96275.22;;;30.19;28.85
77077;BME280;66003;52.286;104.306;2023-07-13T06:52:26;96278.00;;;30.15;28.94
77077;BME280;66003;52.286;104.306;2023-07-13T06:54:53;96260.34;;;30.09;28.83
77077;BME280;66003;52.286;104.306;2023-07-13T06:57:19;96271.78;;;30.08;29.05
77077;BME280;66003;52.286;104.306;2023-07-13T06:59:45;96256.75;;;30.16;29.48
77077;BME280;66003;52.286;104.306;2023-07-13T07:02:11;96246.53;;;30.13;29.50
77077;BME280;66003;52.286;104.306;2023-07-13T07:04:37;96253.31;;;30.05;29.03
77077;BME280;66003;52.286;104.306;2023-07-13T07:07:04;96254.81;;;30.09;28.72
77077;BME280;66003;52.286;104.306;2023-07-13T07:09:30;96250.97;;;30.00;28.97
77077;BME280;66003;52.286;104.306;2023-07-13T07:11:58;96248.88;;;30.14;29.92
77077;BME280;66003;52.286;104.306;2023-07-13T07:14:24;96234.81;;;30.02;29.04
77077;BME280;66003;52.286;104.306;2023-07-13T07:16:50;96241.59;;;29.87;29.08
77077;BME280;66003;52.286;104.306;2023-07-13T07:19:16;96232.34;;;29.66;29.58
77077;BME280;66003;52.286;104.306;2023-07-13T07:21:43;96243.81;;;29.61;29.80
77077;BME280;66003;52.286;104.306;2023-07-13T07:24:09;96221.50;;;29.45;29.55
77077;BME280;66003;52.286;104.306;2023-07-13T07:26:35;96234.41;;;29.55;29.65
77077;BME280;66003;52.286;104.306;2023-07-13T07:29:01;96232.34;;;29.63;30.44
77077;BME280;66003;52.286;104.306;2023-07-13T07:31:27;96213.13;;;29.59;30.38
77077;BME280;66003;52.286;104.306;2023-07-13T07:33:53;96230.38;;;29.63;29.22
77077;BME280;66003;52.286;104.306;2023-07-13T07:36:20;96218.28;;;29.54;29.01
77077;BME280;66003;52.286;104.306;2023-07-13T07:38:46;96220.50;;;29.69;29.68
77077;BME280;66003;52.286;104.306;2023-07-13T07:41:12;96219.22;;;29.85;29.45
77077;BME280;66003;52.286;104.306;2023-07-13T07:43:38;96218.31;;;29.98;29.43
77077;BME280;66003;52.286;104.306;2023-07-13T07:46:05;96197.88;;;29.96;29.08
77077;BME280;66003;52.286;104.306;2023-07-13T07:48:31;96199.78;;;29.99;29.26
77077;BME280;66003;52.286;104.306;2023-07-13T07:50:58;96206.13;;;29.92;29.90
77077;BME280;66003;52.286;104.306;2023-07-13T07:53:24;96200.13;;;30.08;29.80
77077;BME280;66003;52.286;104.306;2023-07-13T07:55:50;96197.31;;;30.11;28.74
77077;BME280;66003;52.286;104.306;2023-07-13T07:58:17;96203.09;;;30.24;27.71
77077;BME280;66003;52.286;104.306;2023-07-13T08:00:43;96196.38;;;30.25;27.94
77077;BME280;66003;52.286;104.306;2023-07-13T08:03:09;96205.66;;;30.42;27.90
77077;BME280;66003;52.286;104.306;2023-07-13T08:05:36;96211.91;;;30.46;27.05
77077;BME280;66003;52.286;104.306;2023-07-13T08:08:03;96193.19;;;30.30;27.28
77077;BME280;66003;52.286;104.306;2023-07-13T08:10:29;96192.47;;;30.23;27.01
77077;BME280;66003;52.286;104.306;2023-07-13T08:12:56;96204.88;;;30.04;27.44
77077;BME280;66003;52.286;104.306;2023-07-13T08:15:22;96188.78;;;29.95;28.47
77077;BME280;66003;52.286;104.306;2023-07-13T08:17:48;96199.09;;;29.88;28.35
77077;BME280;66003;52.286;104.306;2023-07-13T08:20:15;96198.00;;;29.78;28.10
77077;BME280;66003;52.286;104.306;2023-07-13T08:22:41;96195.59;;;29.84;28.21
77077;BME280;66003;52.286;104.306;2023-07-13T08:25:08;96204.28;;;29.78;28.54
77077;BME280;66003;52.286;104.306;2023-07-13T08:27:34;96172.44;;;29.74;28.65
77077;BME280;66003;52.286;104.306;2023-07-13T08:30:00;96190.63;;;29.68;28.85
77077;BME280;66003;52.286;104.306;2023-07-13T08:32:27;96196.53;;;29.66;28.03
77077;BME280;66003;52.286;104.306;2023-07-13T08:34:53;96199.59;;;29.75;28.00
77077;BME280;66003;52.286;104.306;2023-07-13T08:37:20;96205.66;;;29.60;28.36
77077;BME280;66003;52.286;104.306;2023-07-13T08:39:46;96203.72;;;29.53;27.89
77077;BME280;66003;52.286;104.306;2023-07-13T08:42:43;96198.91;;;29.64;27.82
77077;BME280;66003;52.286;104.306;2023-07-13T08:45:17;96202.16;;;29.52;28.32
77077;BME280;66003;52.286;104.306;2023-07-13T08:48:01;96198.97;;;29.57;28.64
77077;BME280;66003;52.286;104.306;2023-07-13T08:50:58;96194.75;;;29.87;28.18
77077;BME280;66003;52.286;104.306;2023-07-13T08:53:35;96202.69;;;29.85;27.29
77077;BME280;66003;52.286;104.306;2023-07-13T08:56:07;96198.75;;;29.82;27.73
77077;BME280;66003;52.286;104.306;2023-07-13T08:58:36;96181.53;;;29.71;27.04
77077;BME280;66003;52.286;104.306;2023-07-13T09:01:18;96200.28;;;29.87;27.74
77077;BME280;66003;52.286;104.306;2023-07-13T09:04:22;96197.88;;;29.96;27.41
77077;BME280;66003;52.286;104.306;2023-07-13T09:07:17;96182.19;;;29.86;27.79
77077;BME280;66003;52.286;104.306;2023-07-13T09:12:39;96188.94;;;29.81;28.67
77077;BME280;66003;52.286;104.306;2023-07-13T09:17:51;96191.81;;;29.63;28.37
77077;BME280;66003;52.286;104.306;2023-07-13T09:22:53;96182.31;;;29.71;27.96
77077;BME280;66003;52.286;104.306;2023-07-13T09:25:30;96173.72;;;29.66;28.64
77077;BME280;66003;52.286;104.306;2023-07-13T09:30:52;96183.38;;;29.85;28.36
77077;BME280;66003;52.286;104.306;2023-07-13T09:33:22;96169.22;;;29.83;28.86
77077;BME280;66003;52.286;104.306;2023-07-13T09:35:49;96171.03;;;29.55;27.64
77077;BME280;66003;52.286;104.306;2023-07-13T09:38:18;96164.41;;;29.49;26.55
77077;BME280;66003;52.286;104.306;2023-07-13T09:43:35;96157.44;;;29.34;27.66
77077;BME280;66003;52.286;104.306;2023-07-13T09:46:01;96165.69;;;29.30;28.46
77077;BME280;66003;52.286;104.306;2023-07-13T09:48:34;96167.56;;;29.48;28.82
77077;BME280;66003;52.286;104.306;2023-07-13T09:51:09;96155.72;;;29.51;29.11
77077;BME280;66003;52.286;104.306;2023-07-13T09:53:38;96162.50;;;29.42;28.10
77077;BME280;66003;52.286;104.306;2023-07-13T09:56:22;96154.13;;;29.53;28.27
77077;BME280;66003;52.286;104.306;2023-07-13T09:58:48;96155.47;;;29.34;28.50
77077;BME280;66003;52.286;104.306;2023-07-13T10:01:14;96168.81;;;29.36;28.65
77077;BME280;66003;52.286;104.306;2023-07-13T10:03:53;96141.69;;;29.34;28.31
77077;BME280;66003;52.286;104.306;2023-07-13T10:06:21;96153.19;;;29.22;28.56
77077;BME280;66003;52.286;104.306;2023-07-13T10:08:49;96147.31;;;29.17;28.01
77077;BME280;66003;52.286;104.306;2023-07-13T10:11:29;96155.56;;;29.17;27.86
77077;BME280;66003;52.286;104.306;2023-07-13T10:14:10;96149.75;;;29.07;27.61
77077;BME280;66003;52.286;104.306;2023-07-13T10:16:38;96162.41;;;28.98;27.71
77077;BME280;66003;52.286;104.306;2023-07-13T10:21:41;96154.66;;;28.79;27.57
77077;BME280;66003;52.286;104.306;2023-07-13T10:24:17;96167.44;;;29.10;28.11
77077;BME280;66003;52.286;104.306;2023-07-13T10:26:51;96164.75;;;29.03;28.21
77077;BME280;66003;52.286;104.306;2023-07-13T10:29:20;96155.78;;;28.85;27.74
77077;BME280;66003;52.286;104.306;2023-07-13T10:31:48;96147.47;;;28.99;27.84
77077;BME280;66003;52.286;104.306;2023-07-13T10:34:16;96155.78;;;28.85;27.88
77077;BME280;66003;52.286;104.306;2023-07-13T10:36:46;96162.09;;;28.82;27.84
77077;BME280;66003;52.286;104.306;2023-07-13T10:39:21;96146.41;;;28.71;27.88
77077;BME280;66003;52.286;104.306;2023-07-13T10:41:53;96147.97;;;28.69;28.14
77077;BME280;66003;52.286;104.306;2023-07-13T10:44:24;96147.59;;;28.70;28.15
77077;BME280;66003;52.286;104.306;2023-07-13T10:47:04;96143.72;;;28.61;28.68
77077;BME280;66003;52.286;104.306;2023-07-13T10:49:33;96138.22;;;28.57;28.90
77077;BME280;66003;52.286;104.306;2023-07-13T10:52:02;96148.81;;;28.59;28.68
77077;BME280;66003;52.286;104.306;2023-07-13T10:54:33;96146.41;;;28.71;27.97
77077;BME280;66003;52.286;104.306;2023-07-13T10:59:35;96154.00;;;28.46;28.98
77077;BME280;66003;52.286;104.306;2023-07-13T11:04:44;96141.41;;;28.56;28.66
77077;BME280;66003;52.286;104.306;2023-07-13T11:07:28;96134.34;;;28.48;28.47
77077;BME280;66003;52.286;104.306;2023-07-13T11:09:57;96139.50;;;28.35;29.04
77077;BME280;66003;52.286;104.306;2023-07-13T11:25:38;96156.03;;;28.10;29.18
77077;BME280;66003;52.286;104.306;2023-07-13T11:33:28;96154.06;;;28.32;29.61
77077;BME280;66003;52.286;104.306;2023-07-13T11:38:45;96159.97;;;28.27;29.54
77077;BME280;66003;52.286;104.306;2023-07-13T11:43:44;96145.47;;;28.05;29.92
77077;BME280;66003;52.286;104.306;2023-07-13T11:48:41;96147.09;;;27.95;29.92
77077;BME280;66003;52.286;104.306;2023-07-13T11:53:48;96164.72;;;28.01;29.97
77077;BME280;66003;52.286;104.306;2023-07-13T11:56:16;96160.78;;;28.06;29.87
77077;BME280;66003;52.286;104.306;2023-07-13T11:58:43;96165.09;;;28.00;30.53
77077;BME280;66003;52.286;104.306;2023-07-13T12:01:19;96169.81;;;28.03;31.14
77077;BME280;66003;52.286;104.306;2023-07-13T12:03:46;96181.63;;;27.86;31.08
77077;BME280;66003;52.286;104.306;2023-07-13T12:08:51;96181.56;;;28.28;31.01
77077;BME280;66003;52.286;104.306;2023-07-13T12:11:18;96166.34;;;27.85;31.33
77077;BME280;66003;52.286;104.306;2023-07-13T12:13:46;96168.31;;;27.84;31.16
77077;BME280;66003;52.286;104.306;2023-07-13T12:18:52;96147.91;;;27.71;32.15
77077;BME280;66003;52.286;104.306;2023-07-13T12:21:19;96161.63;;;27.78;32.02
77077;BME280;66003;52.286;104.306;2023-07-13T12:23:49;96174.19;;;27.76;32.74
77077;BME280;66003;52.286;104.306;2023-07-13T12:26:17;96175.38;;;27.67;32.69
77077;BME280;66003;52.286;104.306;2023-07-13T12:28:52;96175.38;;;27.60;32.96
77077;BME280;66003;52.286;104.306;2023-07-13T12:34:10;96143.97;;;27.22;33.01
77077;BME280;66003;52.286;104.306;2023-07-13T12:36:54;96169.06;;;27.28;34.27
77077;BME280;66003;52.286;104.306;2023-07-13T12:39:32;96174.53;;;27.17;33.59
77077;BME280;66003;52.286;104.306;2023-07-13T12:42:37;96164.75;;;27.30;33.41
77077;BME280;66003;52.286;104.306;2023-07-13T12:47:54;96172.91;;;26.84;34.01
77077;BME280;66003;52.286;104.306;2023-07-13T12:50:22;96176.38;;;26.71;34.84
77077;BME280;66003;52.286;104.306;2023-07-13T12:52:59;96165.00;;;26.61;34.99
77077;BME280;66003;52.286;104.306;2023-07-13T12:55:29;96175.94;;;26.51;35.10
77077;BME280;66003;52.286;104.306;2023-07-13T12:57:59;96169.22;;;26.38;35.21
77077;BME280;66003;52.286;104.306;2023-07-13T13:00:53;96181.44;;;26.61;35.03
77077;BME280;66003;52.286;104.306;2023-07-13T13:03:22;96179.94;;;26.82;34.90
77077;BME280;66003;52.286;104.306;2023-07-13T13:05:48;96177.78;;;26.33;36.34
77077;BME280;66003;52.286;104.306;2023-07-13T13:08:14;96154.97;;;26.07;36.00
77077;BME280;66003;52.286;104.306;2023-07-13T13:10:41;96174.53;;;26.06;36.04
77077;BME280;66003;52.286;104.306;2023-07-13T13:13:07;96182.34;;;26.04;36.26
77077;BME280;66003;52.286;104.306;2023-07-13T13:15:35;96171.31;;;25.93;36.51
77077;BME280;66003;52.286;104.306;2023-07-13T13:18:03;96172.03;;;25.86;36.32
77077;BME280;66003;52.286;104.306;2023-07-13T13:20:30;96178.31;;;25.87;37.01
77077;BME280;66003;52.286;104.306;2023-07-13T13:22:57;96176.69;;;25.79;37.44
77077;BME280;66003;52.286;104.306;2023-07-13T13:25:23;96182.56;;;25.77;37.93
77077;BME280;66003;52.286;104.306;2023-07-13T13:27:50;96173.47;;;25.66;37.28
77077;BME280;66003;52.286;104.306;2023-07-13T13:30:18;96180.94;;;25.73;37.72
77077;BME280;66003;52.286;104.306;2023-07-13T13:32:47;96176.66;;;25.72;37.75
77077;BME280;66003;52.286;104.306;2023-07-13T13:35:19;96180.94;;;25.69;37.20
77077;BME280;66003;52.286;104.306;2023-07-13T13:37:46;96163.59;;;25.54;37.71
77077;BME280;66003;52.286;104.306;2023-07-13T13:40:19;96176.06;;;25.52;38.13
77077;BME280;66003;52.286;104.306;2023-07-13T13:42:46;96176.72;;;25.35;38.26
77077;BME280;66003;52.286;104.306;2023-07-13T13:45:12;96183.00;;;25.35;38.25
77077;BME280;66003;52.286;104.306;2023-07-13T13:47:39;96179.03;;;25.29;38.93
77077;BME280;66003;52.286;104.306;2023-07-13T13:52:41;96179.31;;;25.17;38.67